KAFF/AFF METAR and TAF weather

Enter ICAO airport designator
Station Type Date Time Source
KAFF METAR 2019/10/19 06:58 UTC NOAA

KAFF 190658Z AUTO 00000KT 10SM CLR 00/M04 A2995 RMK AO2 SLP099 T00041039 401821012


Station Type Date Time Source
KAFF Decoded METAR 2019/10/19 06:58 UTC NOAA

Air Force Academy, CO, United States (KAFF) 38-58N 104-49W 1999M
Oct 19, 2019 - 02:58 AM EDT / 2019.10.19 0658 UTC
Wind: Calm:0
Visibility: 10 mile(s):0
Sky conditions: clear
Temperature: 32.7 F (0.4 C)
Dew Point: 25.0 F (-3.9 C)
Relative Humidity: 72%
Pressure (altimeter): 29.95 in. Hg (1014 hPa)
ob: KAFF 190658Z AUTO 00000KT 10SM CLR 00/M04 A2995 RMK AO2 SLP099 T00041039 401821012
cycle: 7

Station Type Date Time Source
KAFF TAF 2019/10/17 22:33 UTC NOAA

TAF TAF
AMD KAFF 172225Z 1722/1901 16013G21KT 9999 OVC200 510009 QNH2970INS
BECMG 1723/1724 25020G30KT 9999 SCT120 BKN200 520003 530309 QNH2971INS
BECMG 1805/1806 25025G35KT 9999 SKC 530009 QNH2970INS
BECMG 1813/1814 03012KT 9999 SKC 530309 QNH2969INS WND 300V090 ROTOR CONDS EXIST
BECMG 1816/1817 34012G22KT 9999 SCT050 520009 QNH2966INS
TEMPO 1819/1823 36015G25KT
BECMG 1900/1901 03010G15KT 9999 FEW050 SCT100 QNH2982INS TX24/1723Z TN12/1816Z LAST NO
AMDS AFT 1800 NEXT 2111

Example: see airport list